createdAt,value
2022-09-15T00:00:38.880Z,4.95
2022-09-15T00:03:32.047Z,4.88
2022-09-15T00:06:05.029Z,4.68
2022-09-15T00:08:38.497Z,4.53
2022-09-15T00:11:16.013Z,5.20
2022-09-15T00:13:49.822Z,4.93
2022-09-15T00:16:25.627Z,4.78
2022-09-15T00:19:00.398Z,5.63
2022-09-15T00:21:37.372Z,5.25
2022-09-15T00:24:10.902Z,4.88
2022-09-15T00:26:44.419Z,4.60
2022-09-15T00:29:17.335Z,4.78
2022-09-15T00:31:50.381Z,4.75
2022-09-15T00:34:23.203Z,4.72
2022-09-15T00:36:55.851Z,5.10
2022-09-15T00:39:28.759Z,4.85
2022-09-15T00:42:01.465Z,4.53
2022-09-15T00:44:37.480Z,5.32
2022-09-15T00:47:19.328Z,4.38
2022-09-15T00:50:07.861Z,4.20
2022-09-15T00:56:55.196Z,4.50
2022-09-15T00:59:41.061Z,4.80
2022-09-15T01:02:16.656Z,4.20
2022-09-15T01:04:55.997Z,4.63
2022-09-15T01:07:34.992Z,4.05
2022-09-15T01:10:35.442Z,4.03
2022-09-15T01:15:57.852Z,4.25
2022-09-15T01:19:04.343Z,4.78
2022-09-15T01:21:55.696Z,4.22
2022-09-15T01:25:08.771Z,4.00
2022-09-15T01:28:14.932Z,4.55
2022-09-15T01:31:01.189Z,5.00
2022-09-15T01:33:55.065Z,5.22
2022-09-15T01:36:42.791Z,5.47
2022-09-15T01:39:32.297Z,5.50
2022-09-15T01:42:09.323Z,5.93
2022-09-15T01:44:45.260Z,5.00
2022-09-15T01:47:20.905Z,5.82
2022-09-15T01:50:01.208Z,6.40
2022-09-15T01:52:34.178Z,6.10
2022-09-15T01:55:16.694Z,6.22
2022-09-15T01:57:49.857Z,6.25
2022-09-15T02:00:22.742Z,5.85
2022-09-15T02:03:27.183Z,6.28
2022-09-15T02:06:07.326Z,6.75
2022-09-15T02:08:50.063Z,6.30
2022-09-15T02:11:29.044Z,6.28
2022-09-15T02:14:17.466Z,6.20
2022-09-15T02:16:54.164Z,7.35
2022-09-15T02:19:34.326Z,8.20
2022-09-15T02:24:50.131Z,7.30
2022-09-15T02:27:27.636Z,6.63
2022-09-15T02:30:06.248Z,7.15
2022-09-15T02:32:48.294Z,7.28
2022-09-15T02:35:21.647Z,7.20
2022-09-15T02:37:56.279Z,6.30
2022-09-15T02:40:29.835Z,7.82
2022-09-15T02:43:05.459Z,7.20
2022-09-15T02:45:38.283Z,6.65
2022-09-15T02:48:11.822Z,7.07
2022-09-15T02:50:44.383Z,6.35
2022-09-15T02:53:17.331Z,6.97
2022-09-15T02:55:50.302Z,6.97
2022-09-15T02:58:23.163Z,6.45
2022-09-15T03:00:56.474Z,6.68
2022-09-15T03:03:29.476Z,6.53
2022-09-15T03:06:17.210Z,6.93
2022-09-15T03:08:53.193Z,6.40
2022-09-15T03:11:27.770Z,6.80
2022-09-15T03:14:03.904Z,7.95
2022-09-15T03:16:36.927Z,6.25
2022-09-15T03:19:09.819Z,6.50
2022-09-15T03:21:42.426Z,6.80
2022-09-15T03:24:15.524Z,7.18
2022-09-15T03:26:48.752Z,6.43
2022-09-15T03:29:21.630Z,6.32
2022-09-15T03:31:54.530Z,6.30
2022-09-15T03:34:27.744Z,7.00
2022-09-15T03:37:00.355Z,6.50
2022-09-15T03:39:33.342Z,6.70
2022-09-15T03:42:06.242Z,6.78
2022-09-15T03:44:39.016Z,6.35
2022-09-15T03:47:11.742Z,6.60
2022-09-15T03:49:44.562Z,6.78
2022-09-15T03:52:17.193Z,6.22
2022-09-15T03:54:50.346Z,6.60
2022-09-15T03:57:23.046Z,5.65
2022-09-15T03:59:55.954Z,7.00
2022-09-15T04:02:28.623Z,7.70
2022-09-15T04:05:02.357Z,7.70
2022-09-15T04:07:34.991Z,6.90
2022-09-15T04:10:08.873Z,7.75
2022-09-15T04:12:41.458Z,6.88
2022-09-15T04:15:14.303Z,7.22
2022-09-15T04:17:47.456Z,6.70
2022-09-15T04:20:20.327Z,7.03
2022-09-15T04:22:53.066Z,6.28
2022-09-15T04:25:27.956Z,6.07
2022-09-15T04:28:00.754Z,6.50
2022-09-15T04:30:33.611Z,6.05
2022-09-15T04:33:06.195Z,6.05
2022-09-15T04:35:39.571Z,6.63
2022-09-15T04:38:12.307Z,6.43
2022-09-15T04:40:45.483Z,6.10
2022-09-15T04:43:18.148Z,6.55
2022-09-15T04:45:51.354Z,6.45
2022-09-15T04:48:24.482Z,7.05
2022-09-15T04:51:02.458Z,6.63
2022-09-15T04:53:36.222Z,6.85
2022-09-15T04:56:14.638Z,6.50
2022-09-15T04:59:02.410Z,7.00
2022-09-15T05:01:36.832Z,6.47
2022-09-15T05:04:10.294Z,6.80
2022-09-15T05:06:43.075Z,6.30
2022-09-15T05:09:15.710Z,6.38
2022-09-15T05:11:48.682Z,6.25
2022-09-15T05:14:21.344Z,6.03
2022-09-15T05:16:54.248Z,6.93
2022-09-15T05:19:26.878Z,6.07
2022-09-15T05:21:59.675Z,6.53
2022-09-15T05:24:32.322Z,5.93
2022-09-15T05:27:05.182Z,6.03
2022-09-15T05:29:37.774Z,5.43
2022-09-15T05:32:10.542Z,5.57
2022-09-15T05:34:43.596Z,5.35
2022-09-15T05:37:16.417Z,5.65
2022-09-15T05:39:49.139Z,4.60
2022-09-15T05:42:21.869Z,5.22
2022-09-15T05:44:56.746Z,4.68
2022-09-15T05:47:30.070Z,4.55
2022-09-15T05:50:02.709Z,4.85
2022-09-15T05:52:35.907Z,4.82
2022-09-15T05:55:09.360Z,4.15
2022-09-15T05:57:42.103Z,5.10
2022-09-15T06:00:15.109Z,4.20
2022-09-15T06:02:47.865Z,4.43
2022-09-15T06:05:20.476Z,4.05
2022-09-15T06:07:54.783Z,4.07
2022-09-15T06:10:27.346Z,3.95
2022-09-15T06:13:00.118Z,4.72
2022-09-15T06:15:32.956Z,3.53
2022-09-15T06:18:05.779Z,4.32
2022-09-15T06:20:38.391Z,3.75
2022-09-15T06:23:11.211Z,3.63
2022-09-15T06:25:44.854Z,3.78
2022-09-15T06:28:22.150Z,3.63
2022-09-15T06:30:56.034Z,3.95
2022-09-15T06:33:28.916Z,3.97
2022-09-15T06:36:03.178Z,4.75
2022-09-15T06:38:36.349Z,4.43
2022-09-15T06:41:09.886Z,4.22
2022-09-15T06:43:43.090Z,5.22
2022-09-15T06:46:25.293Z,3.78
2022-09-15T06:48:58.413Z,4.30
2022-09-15T06:51:35.658Z,4.18
2022-09-15T06:54:08.530Z,3.90
2022-09-15T06:56:41.421Z,3.40
2022-09-15T06:59:15.777Z,3.55
2022-09-15T07:01:54.721Z,2.88
2022-09-15T07:04:27.553Z,2.92
2022-09-15T07:07:00.101Z,3.50
2022-09-15T07:09:32.829Z,2.55
2022-09-15T07:12:05.573Z,2.50
2022-09-15T07:14:38.357Z,3.20
2022-09-15T07:17:10.969Z,2.83
2022-09-15T07:19:45.364Z,2.60
2022-09-15T07:22:18.033Z,2.70
2022-09-15T07:24:50.733Z,2.67
2022-09-15T07:27:26.877Z,2.45
2022-09-15T07:29:59.594Z,3.63
2022-09-15T07:32:32.182Z,2.67
2022-09-15T07:35:06.162Z,2.65
2022-09-15T07:37:38.900Z,2.00
2022-09-15T07:40:12.179Z,2.40
2022-09-15T07:42:45.367Z,2.40
2022-09-15T07:45:18.127Z,2.60
2022-09-15T07:47:50.711Z,2.13
2022-09-15T07:50:23.715Z,1.80
2022-09-15T07:52:56.762Z,1.40
2022-09-15T07:55:30.493Z,1.58
2022-09-15T07:58:03.831Z,1.75
2022-09-15T08:00:39.282Z,1.70
2022-09-15T08:03:12.580Z,1.42
2022-09-15T08:05:45.930Z,1.30
2022-09-15T08:08:18.724Z,1.50
2022-09-15T08:10:51.605Z,1.60
2022-09-15T08:13:25.075Z,1.27
2022-09-15T08:16:08.581Z,1.35
2022-09-15T08:18:42.364Z,1.20
2022-09-15T08:21:17.895Z,1.15
2022-09-15T08:23:52.645Z,1.15
2022-09-15T08:26:26.767Z,1.63
2022-09-15T08:28:59.486Z,1.25
2022-09-15T08:31:32.550Z,1.30
2022-09-15T08:34:06.985Z,1.00
2022-09-15T08:36:40.199Z,2.05
2022-09-15T08:39:12.859Z,1.50
2022-09-15T08:41:48.671Z,0.95
2022-09-15T08:44:34.833Z,1.02
2022-09-15T08:47:13.752Z,1.05
2022-09-15T08:50:10.602Z,1.00
2022-09-15T08:52:46.446Z,1.00
2022-09-15T08:55:38.000Z,0.77
2022-09-15T08:58:21.571Z,0.70
2022-09-15T09:01:06.042Z,1.20
2022-09-15T09:04:06.305Z,0.77
2022-09-15T09:09:49.921Z,1.00
2022-09-15T09:12:55.944Z,0.70
2022-09-15T09:15:37.567Z,0.70
2022-09-15T09:18:22.680Z,0.80
2022-09-15T09:21:09.738Z,0.57
2022-09-15T09:24:05.799Z,0.43
2022-09-15T09:26:39.617Z,0.80
2022-09-15T09:29:19.505Z,1.17
2022-09-15T09:31:55.206Z,0.60
2022-09-15T09:34:33.654Z,0.80
2022-09-15T09:37:12.840Z,0.60
2022-09-15T09:39:46.853Z,0.70
2022-09-15T09:42:22.517Z,0.70
2022-09-15T09:44:55.185Z,0.70
2022-09-15T09:47:29.866Z,0.73
2022-09-15T09:50:02.403Z,0.65
2022-09-15T09:52:37.460Z,0.50
2022-09-15T09:55:19.090Z,0.80
2022-09-15T09:57:51.796Z,0.50
2022-09-15T10:00:36.480Z,0.55
2022-09-15T10:03:14.972Z,0.73
2022-09-15T10:06:03.744Z,0.75
2022-09-15T10:08:37.504Z,0.43
2022-09-15T10:11:11.275Z,0.93
2022-09-15T10:13:53.645Z,1.08
2022-09-15T10:16:27.691Z,0.60
2022-09-15T10:19:00.649Z,0.77
2022-09-15T10:21:33.244Z,0.80
2022-09-15T10:24:38.599Z,0.93
2022-09-15T10:27:19.013Z,0.60
2022-09-15T10:29:52.024Z,0.63
2022-09-15T10:32:30.177Z,0.80
2022-09-15T10:35:21.321Z,0.93
2022-09-15T10:38:11.301Z,0.60
2022-09-15T10:41:00.917Z,0.70
2022-09-15T10:43:52.004Z,0.57
2022-09-15T10:46:28.645Z,0.60
2022-09-15T10:49:48.656Z,0.55
2022-09-15T10:52:30.041Z,0.52
2022-09-15T10:55:16.600Z,0.60
2022-09-15T10:58:05.669Z,0.50
2022-09-15T11:00:59.846Z,0.60
2022-09-15T11:03:51.095Z,0.52
2022-09-15T11:06:36.626Z,0.60
2022-09-15T11:09:13.848Z,0.52
2022-09-15T11:12:02.520Z,0.50
2022-09-15T11:14:45.540Z,0.70
2022-09-15T11:17:45.151Z,0.50
2022-09-15T11:20:39.377Z,0.30
2022-09-15T11:23:33.192Z,0.50
2022-09-15T11:26:40.251Z,0.43
2022-09-15T11:29:37.837Z,0.82
2022-09-15T11:32:17.560Z,0.50
2022-09-15T11:35:02.669Z,0.50
2022-09-15T11:37:45.802Z,0.50
2022-09-15T11:40:28.853Z,0.40
2022-09-15T11:43:37.105Z,0.40
2022-09-15T11:46:17.235Z,0.60
2022-09-15T11:49:01.871Z,0.77
2022-09-15T11:51:42.224Z,1.33
2022-09-15T11:54:31.366Z,0.77
2022-09-15T11:57:06.669Z,0.63
2022-09-15T12:00:05.677Z,0.75
2022-09-15T12:03:19.588Z,0.85
2022-09-15T12:06:05.193Z,1.45
2022-09-15T12:08:43.551Z,0.80
2022-09-15T12:11:20.905Z,0.93
2022-09-15T12:13:55.916Z,0.75
2022-09-15T12:16:29.978Z,0.75
2022-09-15T12:19:23.200Z,0.50
2022-09-15T12:22:14.660Z,0.75
2022-09-15T12:25:02.097Z,0.60
2022-09-15T12:27:34.992Z,0.82
2022-09-15T12:30:41.232Z,0.60
2022-09-15T12:33:43.536Z,0.88
2022-09-15T12:36:34.881Z,0.70
2022-09-15T12:39:36.694Z,0.70
2022-09-15T12:42:33.793Z,0.88
2022-09-15T12:45:28.758Z,0.55
2022-09-15T12:48:12.531Z,0.90
2022-09-15T12:50:55.038Z,0.70
2022-09-15T12:53:50.962Z,1.27
2022-09-15T12:56:32.050Z,0.55
2022-09-15T12:59:07.034Z,0.60
2022-09-15T13:01:50.474Z,1.02
2022-09-15T13:04:58.500Z,0.68
2022-09-15T13:07:36.629Z,0.68
2022-09-15T13:10:09.038Z,0.90
2022-09-15T13:12:54.530Z,1.00
2022-09-15T13:15:28.908Z,0.77
2022-09-15T13:18:05.716Z,0.90
2022-09-15T13:20:44.476Z,0.55
2022-09-15T13:23:23.499Z,0.80
2022-09-15T13:25:59.971Z,0.80
2022-09-15T13:28:33.282Z,1.00
2022-09-15T13:31:26.862Z,1.08
2022-09-15T13:40:33.610Z,0.65
2022-09-15T13:43:09.527Z,0.70
2022-09-15T13:45:54.196Z,0.90
2022-09-15T13:48:32.369Z,0.90
2022-09-15T13:51:31.871Z,0.60
2022-09-15T13:54:15.292Z,0.80
2022-09-15T13:56:49.178Z,0.68
2022-09-15T13:59:25.316Z,0.70
2022-09-15T14:01:59.779Z,0.50
2022-09-15T14:04:32.665Z,0.60
2022-09-15T14:07:05.530Z,0.45
2022-09-15T14:09:47.667Z,0.70
2022-09-15T14:12:20.409Z,0.80
2022-09-15T14:14:58.619Z,0.70
2022-09-15T14:17:32.033Z,0.75
2022-09-15T14:20:19.432Z,0.82
2022-09-15T14:22:52.494Z,0.82
2022-09-15T14:25:25.798Z,0.80
2022-09-15T14:27:58.835Z,0.63
2022-09-15T14:30:32.395Z,0.50
2022-09-15T14:33:05.299Z,0.50
2022-09-15T14:35:38.518Z,1.00
2022-09-15T14:38:25.900Z,0.65
2022-09-15T14:41:00.022Z,0.65
2022-09-15T14:43:36.159Z,0.80
2022-09-15T14:46:20.877Z,0.60
2022-09-15T14:48:53.765Z,0.70
2022-09-15T14:51:33.084Z,0.93
2022-09-15T14:54:07.789Z,0.80
2022-09-15T14:56:42.337Z,0.57
2022-09-15T14:59:19.905Z,0.77
2022-09-15T15:02:17.442Z,0.60
2022-09-15T15:05:01.018Z,0.80
2022-09-15T15:07:37.445Z,0.88
2022-09-15T15:10:23.618Z,1.00
2022-09-15T15:13:04.526Z,0.50
2022-09-15T15:15:38.599Z,1.27
2022-09-15T15:18:37.545Z,0.82
2022-09-15T15:21:34.954Z,0.90
2022-09-15T15:24:13.115Z,0.90
2022-09-15T15:26:49.809Z,2.60
2022-09-15T15:29:47.106Z,1.10
2022-09-15T15:32:28.066Z,0.73
2022-09-15T15:35:01.976Z,1.13
2022-09-15T15:37:35.035Z,1.02
2022-09-15T15:40:17.389Z,0.88
2022-09-15T15:43:02.687Z,0.60
2022-09-15T15:45:47.685Z,0.73
2022-09-15T15:48:20.376Z,1.20
2022-09-15T15:50:53.024Z,0.63
2022-09-15T15:53:26.887Z,0.73
2022-09-15T15:56:00.858Z,0.60
2022-09-15T15:58:34.374Z,0.73
2022-09-15T16:01:11.867Z,0.75
2022-09-15T16:03:44.719Z,1.00
2022-09-15T16:06:17.296Z,1.30
2022-09-15T16:08:51.537Z,0.85
2022-09-15T16:11:24.296Z,1.05
2022-09-15T16:13:57.060Z,0.90
2022-09-15T16:16:30.514Z,1.02
2022-09-15T16:19:03.350Z,1.20
2022-09-15T16:21:40.691Z,0.80
2022-09-15T16:24:15.696Z,0.98
2022-09-15T16:26:53.146Z,0.80
2022-09-15T16:29:31.319Z,1.15
2022-09-15T16:32:05.843Z,0.80
2022-09-15T16:34:38.607Z,0.70
2022-09-15T16:37:11.395Z,1.27
2022-09-15T16:39:44.230Z,0.90
2022-09-15T16:42:16.727Z,1.13
2022-09-15T16:44:49.486Z,1.30
2022-09-15T16:47:21.954Z,0.75
2022-09-15T16:49:54.757Z,0.75
2022-09-15T16:52:27.266Z,1.50
2022-09-15T16:55:00.018Z,0.80
2022-09-15T16:57:32.550Z,0.60
2022-09-15T17:00:05.629Z,0.88
2022-09-15T17:02:38.267Z,0.95
2022-09-15T17:05:24.110Z,1.30
2022-09-15T17:07:57.145Z,0.93
2022-09-15T17:10:30.152Z,1.60
2022-09-15T17:13:02.965Z,0.40
2022-09-15T17:15:37.740Z,1.60
2022-09-15T17:18:13.413Z,1.00
2022-09-15T17:20:48.041Z,0.90
2022-09-15T17:23:31.201Z,1.10
2022-09-15T17:26:09.592Z,1.20
2022-09-15T17:28:42.378Z,1.08
2022-09-15T17:31:21.266Z,0.63
2022-09-15T17:33:53.980Z,0.85
2022-09-15T17:36:27.301Z,1.58
2022-09-15T17:38:59.768Z,1.20
2022-09-15T17:41:33.073Z,1.20
2022-09-15T17:44:11.101Z,1.38
2022-09-15T17:46:44.268Z,1.10
2022-09-15T17:49:19.756Z,1.60
2022-09-15T17:51:52.497Z,1.42
2022-09-15T17:54:25.121Z,1.35
2022-09-15T17:56:57.876Z,1.25
2022-09-15T17:59:30.364Z,1.50
2022-09-15T18:02:03.271Z,1.20
2022-09-15T18:04:35.821Z,0.77
2022-09-15T18:07:09.484Z,1.60
2022-09-15T18:09:42.128Z,1.13
2022-09-15T18:12:14.894Z,1.33
2022-09-15T18:14:47.573Z,1.38
2022-09-15T18:17:20.312Z,1.42
2022-09-15T18:19:52.849Z,1.23
2022-09-15T18:22:25.649Z,1.23
2022-09-15T18:24:58.198Z,1.48
2022-09-15T18:27:31.973Z,1.30
2022-09-15T18:30:04.828Z,2.20
2022-09-15T18:32:37.529Z,1.58
2022-09-15T18:35:14.185Z,1.60
2022-09-15T18:37:55.722Z,1.38
2022-09-15T18:40:28.403Z,2.05
2022-09-15T18:43:01.133Z,1.33
2022-09-15T18:45:33.729Z,2.25
2022-09-15T18:48:10.511Z,1.40
2022-09-15T18:50:45.846Z,1.55
2022-09-15T18:53:19.663Z,1.95
2022-09-15T18:55:52.165Z,1.80
2022-09-15T18:58:24.881Z,1.83
2022-09-15T19:01:00.691Z,2.30
2022-09-15T19:03:34.134Z,1.65
2022-09-15T19:06:07.463Z,1.75
2022-09-15T19:08:40.761Z,1.50
2022-09-15T19:11:13.347Z,1.92
2022-09-15T19:13:46.089Z,1.90
2022-09-15T19:16:22.863Z,1.80
2022-09-15T19:18:59.095Z,1.98
2022-09-15T19:21:31.615Z,1.40
2022-09-15T19:24:04.455Z,1.50
2022-09-15T19:26:37.437Z,1.50
2022-09-15T19:29:11.132Z,1.40
2022-09-15T19:31:43.936Z,1.80
2022-09-15T19:34:16.642Z,2.03
2022-09-15T19:36:49.188Z,1.95
2022-09-15T19:39:21.928Z,1.83
2022-09-15T19:41:54.569Z,3.03
2022-09-15T19:44:28.703Z,2.50
2022-09-15T19:47:01.332Z,2.30
2022-09-15T19:49:34.123Z,3.03
2022-09-15T19:52:07.308Z,3.22
2022-09-15T19:54:40.106Z,3.65
2022-09-15T19:57:12.752Z,3.53
2022-09-15T19:59:45.634Z,3.03
2022-09-15T20:02:18.554Z,3.35
2022-09-15T20:10:14.949Z,3.53
2022-09-15T20:12:47.500Z,3.35
2022-09-15T20:15:20.304Z,3.47
2022-09-15T20:17:52.888Z,3.80
2022-09-15T20:20:25.581Z,3.60
2022-09-15T20:22:58.305Z,3.25
2022-09-15T20:25:31.047Z,3.50
2022-09-15T20:28:03.671Z,3.67
2022-09-15T20:30:54.479Z,3.22
2022-09-15T20:33:27.332Z,3.40
2022-09-15T20:36:35.549Z,3.63
2022-09-15T20:39:13.010Z,3.70
2022-09-15T20:41:46.033Z,3.35
2022-09-15T20:44:18.729Z,3.25
2022-09-15T20:46:51.773Z,3.15
2022-09-15T20:49:24.420Z,2.65
2022-09-15T20:51:57.152Z,2.50
2022-09-15T20:54:29.641Z,2.95
2022-09-15T20:57:02.497Z,2.72
2022-09-15T20:59:35.025Z,2.55
2022-09-15T21:02:08.055Z,2.80
2022-09-15T21:04:40.642Z,3.00
2022-09-15T21:07:14.162Z,2.75
2022-09-15T21:09:46.954Z,2.90
2022-09-15T21:12:19.703Z,2.58
2022-09-15T21:14:52.237Z,2.65
2022-09-15T21:17:25.115Z,3.13
2022-09-15T21:19:57.891Z,3.72
2022-09-15T21:22:33.421Z,3.00
2022-09-15T21:25:06.492Z,2.90
2022-09-15T21:27:39.779Z,3.35
2022-09-15T21:30:12.664Z,3.53
2022-09-15T21:32:45.500Z,3.40
2022-09-15T21:35:18.036Z,3.28
2022-09-15T21:37:50.740Z,3.35
2022-09-15T21:40:23.316Z,2.83
2022-09-15T21:42:56.064Z,3.28
2022-09-15T21:45:28.751Z,3.35
2022-09-15T21:48:01.671Z,2.90
2022-09-15T21:50:34.511Z,2.60
2022-09-15T21:53:07.556Z,2.85
2022-09-15T21:55:40.048Z,2.22
2022-09-15T21:58:13.112Z,2.22
2022-09-15T22:00:47.077Z,2.35
2022-09-15T22:03:20.897Z,2.10
2022-09-15T22:05:53.484Z,1.90
2022-09-15T22:08:26.331Z,1.60
2022-09-15T22:11:02.053Z,2.08
2022-09-15T22:13:41.217Z,1.60
2022-09-15T22:16:21.723Z,1.92
2022-09-15T22:18:55.450Z,1.40
2022-09-15T22:21:31.557Z,1.67
2022-09-15T22:24:06.991Z,1.95
2022-09-15T22:26:40.881Z,1.77
2022-09-15T22:29:13.633Z,1.92
2022-09-15T22:31:46.242Z,2.20
2022-09-15T22:34:19.093Z,1.13
2022-09-15T22:36:51.602Z,1.83
2022-09-15T22:39:34.102Z,1.60
2022-09-15T22:42:16.737Z,1.77
2022-09-15T22:44:50.023Z,1.60
2022-09-15T22:47:22.761Z,1.23
2022-09-15T22:49:55.589Z,1.30
2022-09-15T22:52:28.112Z,1.33
2022-09-15T22:55:01.383Z,1.48
2022-09-15T22:57:37.326Z,1.83
2022-09-15T23:00:10.940Z,1.38
2022-09-15T23:02:44.332Z,1.33
2022-09-15T23:05:17.175Z,1.50
2022-09-15T23:07:49.895Z,1.13
2022-09-15T23:10:22.939Z,1.35
2022-09-15T23:12:55.988Z,1.67
2022-09-15T23:15:28.883Z,1.25
2022-09-15T23:18:01.400Z,1.08
2022-09-15T23:20:34.426Z,1.08
2022-09-15T23:23:06.902Z,1.13
2022-09-15T23:25:39.630Z,0.68
2022-09-15T23:28:12.295Z,1.05
2022-09-15T23:30:45.147Z,0.90
2022-09-15T23:33:17.892Z,1.20
2022-09-15T23:35:51.502Z,1.17
2022-09-15T23:38:24.027Z,1.60
2022-09-15T23:40:56.811Z,1.50
2022-09-15T23:43:29.578Z,1.98
2022-09-15T23:46:03.458Z,1.63
2022-09-15T23:48:36.213Z,1.90
2022-09-15T23:51:09.623Z,1.40
2022-09-15T23:53:42.326Z,2.13
2022-09-15T23:56:15.142Z,2.17
2022-09-15T23:58:47.671Z,1.83
